createdAt,value
2017-11-27T00:01:59.268Z,5.10
2017-11-27T00:04:35.510Z,3.30
2017-11-27T00:07:11.293Z,6.62
2017-11-27T00:09:49.487Z,4.10
2017-11-27T00:12:29.204Z,5.00
2017-11-27T00:15:02.240Z,4.90
2017-11-27T00:17:34.475Z,5.20
2017-11-27T00:20:05.302Z,4.53
2017-11-27T00:22:42.476Z,4.60
2017-11-27T00:25:12.191Z,4.40
2017-11-27T00:30:16.943Z,4.45
2017-11-27T00:32:52.940Z,4.05
2017-11-27T00:35:29.235Z,5.00
2017-11-27T00:38:04.633Z,3.92
2017-11-27T00:40:34.382Z,5.10
2017-11-27T00:43:03.368Z,5.20
2017-11-27T00:51:05.638Z,3.95
2017-11-27T00:53:34.073Z,4.85
2017-11-27T00:56:02.570Z,4.45
2017-11-27T00:58:31.680Z,3.60
2017-11-27T01:01:02.171Z,4.85
2017-11-27T01:03:32.376Z,4.80
2017-11-27T01:06:13.346Z,3.47
2017-11-27T01:08:43.230Z,4.28
2017-11-27T01:11:16.314Z,4.22
2017-11-27T01:13:46.494Z,4.60
2017-11-27T01:16:16.689Z,4.65
2017-11-27T01:18:54.146Z,4.10
2017-11-27T01:21:22.325Z,4.32
2017-11-27T01:23:50.405Z,4.05
2017-11-27T01:26:26.557Z,3.40
2017-11-27T01:28:58.014Z,3.95
2017-11-27T01:31:32.696Z,3.22
2017-11-27T01:34:02.045Z,4.10
2017-11-27T01:36:34.225Z,3.47
2017-11-27T01:39:07.141Z,3.97
2017-11-27T01:41:58.017Z,3.47
2017-11-27T01:44:33.586Z,3.72
2017-11-27T01:47:05.535Z,3.70
2017-11-27T01:49:39.026Z,4.75
2017-11-27T01:52:11.364Z,4.15
2017-11-27T01:54:39.259Z,4.20
2017-11-27T01:57:07.862Z,4.82
2017-11-27T01:59:37.174Z,5.00
2017-11-27T02:02:06.988Z,4.95
2017-11-27T02:04:35.927Z,4.82
2017-11-27T02:07:04.792Z,3.92
2017-11-27T02:09:37.541Z,4.18
2017-11-27T02:12:23.103Z,4.50
2017-11-27T02:14:57.115Z,3.87
2017-11-27T02:17:25.243Z,3.35
2017-11-27T02:19:56.812Z,3.62
2017-11-27T02:22:26.171Z,3.72
2017-11-27T02:25:02.140Z,3.97
2017-11-27T02:27:32.527Z,3.25
2017-11-27T02:30:03.224Z,4.05
2017-11-27T02:32:31.251Z,3.53
2017-11-27T02:35:06.456Z,3.80
2017-11-27T02:37:37.656Z,3.83
2017-11-27T02:40:07.285Z,5.03
2017-11-27T02:42:37.803Z,4.40
2017-11-27T02:45:06.813Z,3.62
2017-11-27T02:47:35.066Z,3.70
2017-11-27T02:50:05.773Z,3.53
2017-11-27T02:52:38.490Z,3.33
2017-11-27T02:55:06.882Z,4.43
2017-11-27T02:57:36.492Z,4.22
2017-11-27T03:00:04.484Z,4.03
2017-11-27T03:02:35.545Z,3.97
2017-11-27T03:05:04.059Z,4.20
2017-11-27T03:07:33.030Z,3.87
2017-11-27T03:10:01.844Z,4.45
2017-11-27T03:12:29.872Z,4.25
2017-11-27T03:14:58.777Z,4.00
2017-11-27T03:17:27.262Z,3.58
2017-11-27T03:19:57.468Z,4.30
2017-11-27T03:22:26.793Z,3.80
2017-11-27T03:24:58.287Z,3.65
2017-11-27T03:27:29.076Z,3.42
2017-11-27T03:30:09.022Z,2.80
2017-11-27T03:32:41.321Z,2.65
2017-11-27T03:35:10.520Z,4.30
2017-11-27T03:37:41.204Z,3.78
2017-11-27T03:40:11.965Z,3.50
2017-11-27T03:42:41.650Z,3.72
2017-11-27T03:45:11.425Z,2.85
2017-11-27T03:47:43.534Z,3.42
2017-11-27T03:50:11.931Z,2.35
2017-11-27T03:52:41.164Z,2.83
2017-11-27T03:55:10.616Z,3.30
2017-11-27T03:57:40.013Z,2.87
2017-11-27T04:00:09.351Z,2.33
2017-11-27T04:02:37.426Z,3.37
2017-11-27T04:05:06.747Z,3.10
2017-11-27T04:07:35.462Z,3.60
2017-11-27T04:10:04.938Z,3.47
2017-11-27T04:12:35.162Z,3.08
2017-11-27T04:17:54.284Z,3.50
2017-11-27T04:20:31.166Z,2.50
2017-11-27T04:23:13.783Z,3.03
2017-11-27T04:25:44.658Z,3.05
2017-11-27T04:28:19.354Z,3.40
2017-11-27T04:30:49.569Z,2.25
2017-11-27T04:33:22.246Z,2.70
2017-11-27T04:35:53.104Z,2.78
2017-11-27T04:38:25.380Z,2.67
2017-11-27T04:40:54.707Z,3.10
2017-11-27T04:43:24.010Z,2.80
2017-11-27T04:46:01.253Z,2.40
2017-11-27T04:48:29.295Z,2.72
2017-11-27T04:51:02.385Z,2.92
2017-11-27T04:53:30.809Z,3.12
2017-11-27T04:55:58.839Z,3.17
2017-11-27T04:58:27.009Z,2.00
2017-11-27T05:00:56.942Z,2.65
2017-11-27T05:03:28.517Z,2.90
2017-11-27T05:05:56.123Z,3.12
2017-11-27T05:08:26.268Z,2.75
2017-11-27T05:10:53.846Z,3.05
2017-11-27T05:13:21.413Z,2.50
2017-11-27T05:15:50.302Z,2.83
2017-11-27T05:18:19.060Z,2.67
2017-11-27T05:20:46.811Z,2.22
2017-11-27T05:23:15.125Z,2.85
2017-11-27T05:25:42.705Z,2.20
2017-11-27T05:28:10.688Z,2.72
2017-11-27T05:30:38.401Z,3.40
2017-11-27T05:33:06.056Z,2.78
2017-11-27T05:35:33.805Z,2.83
2017-11-27T05:38:01.395Z,2.72
2017-11-27T05:40:28.929Z,2.60
2017-11-27T05:42:57.989Z,2.72
2017-11-27T05:45:25.719Z,2.60
2017-11-27T05:48:03.409Z,2.72
2017-11-27T05:50:31.055Z,3.58
2017-11-27T05:52:58.973Z,3.15
2017-11-27T05:55:26.806Z,3.30
2017-11-27T05:57:54.505Z,3.22
2017-11-27T06:00:22.726Z,3.33
2017-11-27T06:02:50.670Z,3.12
2017-11-27T06:05:19.250Z,3.53
2017-11-27T06:07:47.178Z,3.10
2017-11-27T06:10:14.679Z,3.28
2017-11-27T06:12:42.232Z,2.83
2017-11-27T06:15:22.844Z,2.37
2017-11-27T06:17:51.104Z,3.78
2017-11-27T06:20:24.261Z,3.12
2017-11-27T06:22:52.453Z,3.55
2017-11-27T06:25:20.776Z,3.62
2017-11-27T06:27:48.497Z,3.80
2017-11-27T06:30:17.328Z,3.72
2017-11-27T06:32:46.928Z,3.42
2017-11-27T06:35:14.424Z,3.45
2017-11-27T06:37:41.921Z,4.20
2017-11-27T06:40:09.396Z,3.60
2017-11-27T06:42:37.482Z,3.97
2017-11-27T06:45:05.017Z,3.65
2017-11-27T06:47:32.607Z,3.85
2017-11-27T06:50:00.271Z,3.53
2017-11-27T06:52:27.887Z,4.35
2017-11-27T06:54:55.501Z,3.45
2017-11-27T06:57:23.091Z,3.37
2017-11-27T06:59:50.925Z,3.70
2017-11-27T07:02:18.632Z,3.85
2017-11-27T07:04:46.176Z,3.35
2017-11-27T07:07:13.664Z,3.47
2017-11-27T07:09:41.187Z,4.10
2017-11-27T07:12:08.757Z,3.70
2017-11-27T07:14:36.294Z,3.40
2017-11-27T07:17:03.872Z,2.28
2017-11-27T07:19:31.392Z,3.25
2017-11-27T07:21:58.916Z,3.03
2017-11-27T07:24:26.580Z,2.12
2017-11-27T07:26:54.133Z,3.22
2017-11-27T07:29:21.652Z,3.40
2017-11-27T07:31:49.152Z,3.30
2017-11-27T07:34:16.700Z,3.25
2017-11-27T07:36:44.820Z,3.05
2017-11-27T07:39:17.863Z,2.78
2017-11-27T07:41:45.347Z,4.10
2017-11-27T07:44:12.972Z,3.10
2017-11-27T07:46:41.901Z,3.10
2017-11-27T07:49:10.558Z,2.65
2017-11-27T07:51:38.099Z,2.80
2017-11-27T07:54:05.659Z,2.92
2017-11-27T07:56:38.828Z,2.72
2017-11-27T08:05:19.182Z,2.90
2017-11-27T08:07:58.601Z,2.50
2017-11-27T09:10:00.263Z,3.35
2017-11-27T09:26:14.603Z,3.28
2017-11-27T09:28:42.881Z,2.40
2017-11-27T09:31:10.601Z,2.47
2017-11-27T09:33:39.408Z,2.90
2017-11-27T09:36:07.100Z,2.28
2017-11-27T09:38:34.674Z,2.50
2017-11-27T09:41:03.161Z,2.30
2017-11-27T09:43:30.896Z,2.60
2017-11-27T09:45:58.494Z,2.60
2017-11-27T09:48:26.101Z,2.45
2017-11-27T09:50:53.627Z,2.40
2017-11-27T09:53:22.317Z,2.40
2017-11-27T09:55:49.850Z,2.58
2017-11-27T09:58:18.663Z,2.42
2017-11-27T10:00:46.308Z,2.10
2017-11-27T10:03:13.838Z,2.15
2017-11-27T10:05:41.354Z,2.30
2017-11-27T10:08:08.857Z,2.60
2017-11-27T10:10:37.429Z,2.30
2017-11-27T10:13:04.976Z,2.80
2017-11-27T10:15:32.491Z,2.67
2017-11-27T10:18:00.007Z,2.50
2017-11-27T10:20:27.571Z,2.37
2017-11-27T10:22:55.129Z,2.72
2017-11-27T10:25:22.677Z,2.50
2017-11-27T10:27:50.214Z,1.90
2017-11-27T10:30:17.813Z,2.60
2017-11-27T10:35:49.793Z,1.98
2017-11-27T11:07:58.425Z,2.47
2017-11-27T11:24:59.578Z,2.20
2017-11-27T11:27:27.276Z,2.58
